createdAt,value
2022-12-01T00:03:30.617Z,8.82
2022-12-01T00:07:32.352Z,9.02
2022-12-01T00:11:35.977Z,8.70
2022-12-01T00:15:37.761Z,10.00
2022-12-01T00:19:39.354Z,9.30
2022-12-01T00:23:43.859Z,9.63
2022-12-01T00:27:53.001Z,9.07
2022-12-01T00:31:54.634Z,8.57
2022-12-01T00:36:00.365Z,9.02
2022-12-01T00:40:03.545Z,10.00
2022-12-01T00:44:05.444Z,9.43
2022-12-01T00:48:07.033Z,9.63
2022-12-01T00:52:08.647Z,9.27
2022-12-01T00:56:10.334Z,9.13
2022-12-01T01:00:12.736Z,10.00
2022-12-01T01:04:14.402Z,9.02
2022-12-01T01:08:16.046Z,9.52
2022-12-01T01:12:17.693Z,9.85
2022-12-01T01:16:21.933Z,10.25
2022-12-01T01:20:23.653Z,9.38
2022-12-01T01:24:25.271Z,9.68
2022-12-01T01:28:26.988Z,8.77
2022-12-01T01:32:28.659Z,9.73
2022-12-01T01:36:30.639Z,9.50
2022-12-01T01:40:32.259Z,9.32
2022-12-01T01:44:53.162Z,8.90
2022-12-01T01:49:08.145Z,8.93
2022-12-01T01:53:12.141Z,9.55
2022-12-01T01:57:18.905Z,9.57
2022-12-01T02:01:21.716Z,9.57
2022-12-01T02:05:33.480Z,9.23
2022-12-01T02:09:36.212Z,9.57
2022-12-01T02:14:03.275Z,9.65
2022-12-01T02:18:17.103Z,9.35
2022-12-01T02:22:32.676Z,8.85
2022-12-01T02:30:55.655Z,9.40
2022-12-01T02:39:04.642Z,9.18
2022-12-01T02:43:24.872Z,9.82
2022-12-01T02:47:26.890Z,9.38
2022-12-01T02:51:34.018Z,9.63
2022-12-01T02:55:35.866Z,9.30
2022-12-01T02:59:37.834Z,9.43
2022-12-01T03:04:01.209Z,10.35
2022-12-01T03:08:14.785Z,9.50
2022-12-01T03:12:35.190Z,9.38
2022-12-01T03:16:49.626Z,9.85
2022-12-01T03:20:56.574Z,9.32
2022-12-01T03:25:01.083Z,9.73
2022-12-01T03:29:07.483Z,9.15
2022-12-01T03:33:20.979Z,10.48
2022-12-01T03:37:31.325Z,9.27
2022-12-01T03:41:41.312Z,10.20
2022-12-01T03:46:02.776Z,9.68
2022-12-01T03:50:06.713Z,9.93
2022-12-01T03:54:18.104Z,10.57
2022-12-01T03:58:30.237Z,9.50
2022-12-01T04:02:32.199Z,10.27
2022-12-01T04:06:34.364Z,9.27
2022-12-01T04:10:35.974Z,11.30
2022-12-01T04:14:37.611Z,10.52
2022-12-01T04:18:39.206Z,10.70
2022-12-01T04:22:41.089Z,10.27
2022-12-01T04:26:43.352Z,9.75
2022-12-01T04:30:55.005Z,9.85
2022-12-01T04:34:56.614Z,9.50
2022-12-01T04:38:58.285Z,9.20
2022-12-01T04:42:59.910Z,10.80
2022-12-01T04:47:02.457Z,10.02
2022-12-01T04:51:06.046Z,9.88
2022-12-01T04:55:08.439Z,9.88
2022-12-01T04:59:10.878Z,10.05
2022-12-01T05:03:15.165Z,10.60
2022-12-01T05:07:18.113Z,10.95
2022-12-01T05:11:19.958Z,10.02
2022-12-01T05:15:21.597Z,10.52
2022-12-01T05:19:41.994Z,10.13
2022-12-01T05:23:45.598Z,10.35
2022-12-01T05:27:47.220Z,9.95
2022-12-01T05:31:48.941Z,10.70
2022-12-01T05:35:51.113Z,11.15
2022-12-01T05:39:52.727Z,10.07
2022-12-01T05:43:54.345Z,10.65
2022-12-01T05:47:57.234Z,10.13
2022-12-01T05:52:08.233Z,9.70
2022-12-01T05:56:10.188Z,9.50
2022-12-01T06:00:13.142Z,9.88
2022-12-01T06:04:24.224Z,9.93
2022-12-01T06:08:25.951Z,8.80
2022-12-01T06:12:27.655Z,9.73
2022-12-01T06:16:29.328Z,10.23
2022-12-01T06:20:31.008Z,11.40
2022-12-01T06:24:32.641Z,10.13
2022-12-01T06:28:34.651Z,10.90
2022-12-01T06:32:36.632Z,11.18
2022-12-01T06:36:38.306Z,12.23
2022-12-01T06:40:39.911Z,10.80
2022-12-01T06:44:41.657Z,12.55
2022-12-01T06:48:43.300Z,11.60
2022-12-01T06:52:44.897Z,11.98
2022-12-01T06:56:46.750Z,12.05
2022-12-01T07:00:52.035Z,11.45
2022-12-01T07:04:54.076Z,11.87
2022-12-01T07:08:55.775Z,13.60
2022-12-01T07:12:57.382Z,13.40
2022-12-01T07:16:59.185Z,12.77
2022-12-01T07:21:02.055Z,13.70
2022-12-01T07:25:03.989Z,13.15
2022-12-01T07:29:05.646Z,12.52
2022-12-01T07:33:07.210Z,11.82
2022-12-01T07:37:08.988Z,12.68
2022-12-01T07:41:13.331Z,12.32
2022-12-01T07:45:14.953Z,11.68
2022-12-01T07:49:16.564Z,12.20
2022-12-01T07:53:18.131Z,11.35
2022-12-01T07:57:20.480Z,11.35
2022-12-01T08:01:24.639Z,12.05
2022-12-01T08:05:26.262Z,11.05
2022-12-01T08:09:27.857Z,10.55
2022-12-01T08:13:29.844Z,11.45
2022-12-01T08:17:31.465Z,10.98
2022-12-01T08:21:33.175Z,11.85
2022-12-01T08:25:34.905Z,11.45
2022-12-01T08:29:36.509Z,11.55
2022-12-01T08:33:38.529Z,11.98
2022-12-01T08:37:40.131Z,11.48
2022-12-01T08:41:41.898Z,10.95
2022-12-01T08:45:43.486Z,10.15
2022-12-01T08:49:45.257Z,10.68
2022-12-01T08:53:49.307Z,10.80
2022-12-01T08:57:50.906Z,10.30
2022-12-01T09:01:52.632Z,11.13
2022-12-01T09:05:54.386Z,11.15
2022-12-01T09:09:56.025Z,9.82
2022-12-01T09:13:59.202Z,10.27
2022-12-01T09:18:00.827Z,11.77
2022-12-01T09:22:02.826Z,9.45
2022-12-01T09:26:04.524Z,9.50
2022-12-01T09:30:06.740Z,9.25
2022-12-01T09:34:13.326Z,9.90
2022-12-01T09:38:14.904Z,10.23
2022-12-01T09:42:18.514Z,10.13
2022-12-01T09:46:25.994Z,9.52
2022-12-01T09:50:29.992Z,10.10
2022-12-01T09:54:32.351Z,9.70
2022-12-01T09:58:34.697Z,9.70
2022-12-01T10:02:42.341Z,10.70
2022-12-01T10:06:51.240Z,12.10
2022-12-01T10:10:56.958Z,9.43
2022-12-01T10:15:15.349Z,9.02
2022-12-01T10:19:33.768Z,9.30
2022-12-01T10:23:48.444Z,9.18
2022-12-01T10:28:14.321Z,9.00
2022-12-01T10:32:21.952Z,9.47
2022-12-01T10:36:24.825Z,8.98
2022-12-01T10:40:27.452Z,9.73
2022-12-01T10:44:29.518Z,9.43
2022-12-01T10:48:31.267Z,8.20
2022-12-01T10:52:36.791Z,10.15
2022-12-01T10:56:40.611Z,9.43
2022-12-01T11:00:59.629Z,8.07
2022-12-01T11:05:18.757Z,8.80
2022-12-01T11:09:26.513Z,9.10
2022-12-01T11:13:31.036Z,8.52
2022-12-01T11:17:40.443Z,9.23
2022-12-01T11:21:54.725Z,8.38
2022-12-01T11:26:05.176Z,8.80
2022-12-01T11:30:20.150Z,8.30
2022-12-01T11:34:29.449Z,8.65
2022-12-01T11:38:34.475Z,9.18
2022-12-01T11:42:36.965Z,9.65
2022-12-01T11:51:24.101Z,8.77
2022-12-01T11:55:28.545Z,8.50
2022-12-01T11:59:30.196Z,9.48
2022-12-01T12:03:45.626Z,9.07
2022-12-01T12:08:05.923Z,8.60
2022-12-01T12:12:20.184Z,8.25
2022-12-01T12:16:43.052Z,8.18
2022-12-01T12:21:03.539Z,9.30
2022-12-01T12:25:34.341Z,8.65
2022-12-01T12:30:00.753Z,8.98
2022-12-01T12:34:23.121Z,8.95
2022-12-01T12:38:34.132Z,8.55
2022-12-01T12:42:59.172Z,8.70
2022-12-01T12:47:06.144Z,9.55
2022-12-01T12:51:25.781Z,8.43
2022-12-01T12:55:36.166Z,9.48
2022-12-01T12:59:47.041Z,8.60
2022-12-01T13:04:13.651Z,8.50
2022-12-01T13:08:24.966Z,10.18
2022-12-01T13:12:31.455Z,8.95
2022-12-01T13:16:41.234Z,8.45
2022-12-01T13:20:44.063Z,8.27
2022-12-01T13:24:45.885Z,8.88
2022-12-01T13:28:51.700Z,8.95
2022-12-01T13:33:05.164Z,7.93
2022-12-01T13:37:08.717Z,8.48
2022-12-01T13:41:19.411Z,8.10
2022-12-01T13:45:21.203Z,8.65
2022-12-01T13:49:34.214Z,8.02
2022-12-01T13:53:52.556Z,8.35
2022-12-01T13:58:14.435Z,8.20
2022-12-01T14:02:21.417Z,8.20
2022-12-01T14:06:50.454Z,9.05
2022-12-01T14:10:57.689Z,7.47
2022-12-01T14:15:02.725Z,7.53
2022-12-01T14:19:04.417Z,8.02
2022-12-01T14:23:24.873Z,8.57
2022-12-01T14:27:40.017Z,7.85
2022-12-01T14:31:44.531Z,8.13
2022-12-01T14:35:46.372Z,8.25
2022-12-01T14:39:56.640Z,8.30
2022-12-01T14:44:07.412Z,8.45
2022-12-01T14:48:17.005Z,8.57
2022-12-01T14:52:33.572Z,8.57
2022-12-01T14:56:37.474Z,8.55
2022-12-01T15:00:55.203Z,7.50
2022-12-01T15:05:15.412Z,7.47
2022-12-01T15:09:35.598Z,7.72
2022-12-01T15:13:57.541Z,8.98
2022-12-01T15:18:01.719Z,7.75
2022-12-01T15:22:15.414Z,8.30
2022-12-01T15:26:21.893Z,6.95
2022-12-01T15:30:23.542Z,6.85
2022-12-01T15:34:30.355Z,7.80
2022-12-01T15:38:35.182Z,8.68
2022-12-01T15:42:40.468Z,7.78
2022-12-01T15:46:42.186Z,7.50
2022-12-01T15:50:59.025Z,7.50
2022-12-01T15:55:04.233Z,8.00
2022-12-01T15:59:11.735Z,7.07
2022-12-01T16:03:14.531Z,7.75
2022-12-01T16:07:16.288Z,7.47
2022-12-01T16:11:20.350Z,7.72
2022-12-01T16:15:22.735Z,8.05
2022-12-01T16:19:35.885Z,7.57
2022-12-01T16:23:37.565Z,7.38
2022-12-01T16:27:39.922Z,7.03
2022-12-01T16:31:58.603Z,7.28
2022-12-01T16:36:04.303Z,7.55
2022-12-01T16:40:06.601Z,6.93
2022-12-01T16:44:28.118Z,7.95
2022-12-01T16:48:31.218Z,7.57
2022-12-01T16:52:48.278Z,7.63
2022-12-01T16:56:50.001Z,7.40
2022-12-01T17:00:52.733Z,7.32
2022-12-01T17:04:54.456Z,7.45
2022-12-01T17:08:56.130Z,8.30
2022-12-01T17:12:57.739Z,6.78
2022-12-01T17:16:59.330Z,7.38
2022-12-01T17:21:04.139Z,7.20
2022-12-01T17:25:06.562Z,7.55
2022-12-01T17:29:08.132Z,6.93
2022-12-01T17:33:09.855Z,8.80
2022-12-01T17:37:14.875Z,7.30
2022-12-01T17:41:21.898Z,8.27
2022-12-01T17:45:24.060Z,7.30
2022-12-01T17:49:25.682Z,7.95
2022-12-01T17:53:27.550Z,8.88
2022-12-01T17:57:29.213Z,8.30
2022-12-01T18:01:31.095Z,8.65
2022-12-01T18:05:32.891Z,8.15
2022-12-01T18:09:34.973Z,8.35
2022-12-01T18:13:41.522Z,8.00
2022-12-01T18:17:43.191Z,7.65
2022-12-01T18:21:45.249Z,8.15
2022-12-01T18:25:46.951Z,9.02
2022-12-01T18:29:48.567Z,8.63
2022-12-01T18:33:50.902Z,8.13
2022-12-01T18:37:52.872Z,7.75
2022-12-01T18:41:54.689Z,8.35
2022-12-01T18:45:57.529Z,6.95
2022-12-01T18:49:59.524Z,8.02
2022-12-01T18:54:03.073Z,6.93
2022-12-01T18:58:04.715Z,8.00
2022-12-01T19:02:06.962Z,8.13
2022-12-01T19:06:09.788Z,8.68
2022-12-01T19:10:11.602Z,9.25
2022-12-01T19:14:16.491Z,10.60
2022-12-01T19:18:18.149Z,10.15
2022-12-01T19:22:19.791Z,11.05
2022-12-01T19:26:22.519Z,12.20
2022-12-01T19:30:24.143Z,12.68
2022-12-01T19:34:25.969Z,12.48
2022-12-01T19:38:27.606Z,12.88
2022-12-01T19:42:30.269Z,13.50
2022-12-01T19:46:32.208Z,14.07
2022-12-01T19:50:35.573Z,14.68
2022-12-01T19:54:37.657Z,15.25
2022-12-01T19:58:39.583Z,14.70
2022-12-01T20:02:41.582Z,15.07
2022-12-01T20:06:43.301Z,17.55
2022-12-01T20:10:48.620Z,15.70
2022-12-01T20:14:50.724Z,17.73
2022-12-01T20:18:53.969Z,17.30
2022-12-01T20:22:55.562Z,17.52
2022-12-01T20:26:57.502Z,18.85
2022-12-01T20:30:59.100Z,18.95
2022-12-01T20:35:01.809Z,19.77
2022-12-01T20:39:05.139Z,19.25
2022-12-01T20:43:06.950Z,21.13
2022-12-01T20:47:08.564Z,20.85
2022-12-01T20:51:12.930Z,21.65
2022-12-01T20:55:14.569Z,22.02
2022-12-01T20:59:16.322Z,22.02
2022-12-01T21:03:18.098Z,22.48
2022-12-01T21:07:19.736Z,24.25
2022-12-01T21:12:00.073Z,22.35
2022-12-01T21:16:06.012Z,23.13
2022-12-01T21:20:21.934Z,23.33
2022-12-01T21:24:33.592Z,25.20
2022-12-01T21:28:36.886Z,27.67
2022-12-01T21:32:44.015Z,26.65
2022-12-01T21:36:51.278Z,27.48
2022-12-01T21:40:53.086Z,25.73
2022-12-01T21:44:56.711Z,27.33
2022-12-01T21:48:58.304Z,27.83
2022-12-01T21:52:59.949Z,26.15
2022-12-01T21:57:02.198Z,27.17
2022-12-01T22:01:19.344Z,27.90
2022-12-01T22:05:36.787Z,27.80
2022-12-01T22:09:38.976Z,27.70
2022-12-01T22:13:46.767Z,27.63
2022-12-01T22:17:48.362Z,27.20
2022-12-01T22:22:08.584Z,27.83
2022-12-01T22:26:19.326Z,26.95
2022-12-01T22:30:23.077Z,28.83
2022-12-01T22:34:24.641Z,27.50
2022-12-01T22:38:36.177Z,27.00
2022-12-01T22:42:37.814Z,28.15
2022-12-01T22:46:39.845Z,25.60
2022-12-01T22:50:41.596Z,26.05
2022-12-01T22:54:45.447Z,29.02
2022-12-01T22:58:47.328Z,27.13
2022-12-01T23:02:50.006Z,26.00
2022-12-01T23:06:54.378Z,28.83
2022-12-01T23:10:55.960Z,26.38
2022-12-01T23:15:22.307Z,27.23
2022-12-01T23:19:24.915Z,27.00
2022-12-01T23:23:35.389Z,26.52
2022-12-01T23:27:38.104Z,24.95
2022-12-01T23:31:39.989Z,25.83
2022-12-01T23:35:45.772Z,25.75
2022-12-01T23:39:47.517Z,28.38
2022-12-01T23:43:49.752Z,25.85
2022-12-01T23:47:54.311Z,27.05
2022-12-01T23:51:59.046Z,26.42
2022-12-01T23:56:06.536Z,25.63
